TimeEST,TemperatureF,Dew PointF,Humidity,Sea Level PressureIn,VisibilityMPH,Wind Direction,Wind SpeedMPH,Gust SpeedMPH,PrecipitationIn,Events,Conditions,WindDirDegrees,DateUTC
12:54 AM,27.0,21.9,81,30.09,10.0,Calm,Calm,-,N/A,,Clear,0,2012-12-28 05:54:00
1:54 AM,30.0,21.9,72,30.08,10.0,Calm,Calm,-,N/A,,Clear,0,2012-12-28 06:54:00
2:54 AM,30.0,21.9,72,30.10,10.0,Calm,Calm,-,N/A,,Clear,0,2012-12-28 07:54:00
3:54 AM,28.9,21.9,75,30.10,10.0,Variable,3.5,-,N/A,,Clear,0,2012-12-28 08:54:00
4:54 AM,26.1,21.9,84,30.10,10.0,Calm,Calm,-,N/A,,Clear,0,2012-12-28 09:54:00
5:54 AM,26.1,21.9,84,30.11,10.0,Calm,Calm,-,N/A,,Clear,0,2012-12-28 10:54:00
6:54 AM,25.0,21.9,88,30.12,10.0,Calm,Calm,-,N/A,,Clear,0,2012-12-28 11:54:00
7:54 AM,25.0,21.9,88,30.14,10.0,Calm,Calm,-,N/A,,Clear,0,2012-12-28 12:54:00
8:54 AM,28.9,25.0,85,30.14,10.0,Calm,Calm,-,N/A,,Clear,0,2012-12-28 13:54:00
9:54 AM,33.1,26.1,75,30.17,10.0,SW,3.5,-,N/A,,Clear,220,2012-12-28 14:54:00
10:54 AM,36.0,25.0,64,30.18,10.0,Variable,3.5,-,N/A,,Clear,0,2012-12-28 15:54:00
11:54 AM,37.9,25.0,60,30.15,10.0,SSW,9.2,-,N/A,,Overcast,200,2012-12-28 16:54:00
12:54 PM,37.9,25.0,60,30.12,10.0,South,5.8,-,N/A,,Overcast,170,2012-12-28 17:54:00
1:54 PM,39.9,25.0,55,30.11,10.0,Variable,3.5,-,N/A,,Scattered Clouds,0,2012-12-28 18:54:00
2:54 PM,39.9,25.0,55,30.08,10.0,SSW,5.8,-,N/A,,Clear,210,2012-12-28 19:54:00
3:54 PM,39.0,25.0,57,30.06,10.0,South,4.6,-,N/A,,Clear,180,2012-12-28 20:54:00
4:54 PM,37.0,25.0,62,30.06,10.0,Calm,Calm,-,N/A,,Clear,0,2012-12-28 21:54:00
5:54 PM,33.1,26.1,75,30.06,10.0,Calm,Calm,-,N/A,,Clear,0,2012-12-28 22:54:00
6:54 PM,32.0,26.1,79,30.07,10.0,Calm,Calm,-,N/A,,Clear,0,2012-12-28 23:54:00
7:54 PM,34.0,26.1,73,30.10,10.0,SW,3.5,-,N/A,,Clear,220,2012-12-29 00:54:00
8:54 PM,33.1,28.0,82,30.07,10.0,Calm,Calm,-,N/A,,Clear,0,2012-12-29 01:54:00
9:54 PM,33.1,28.9,85,30.06,10.0,Calm,Calm,-,N/A,,Overcast,0,2012-12-29 02:54:00
10:54 PM,34.0,28.9,82,30.04,10.0,Calm,Calm,-,N/A,,Mostly Cloudy,0,2012-12-29 03:54:00
11:54 PM,34.0,28.0,79,30.01,10.0,SE,3.5,-,N/A,,Overcast,140,2012-12-29 04:54:00